Time;durP1;ratioP1;P1;durP2;ratioP2;P2;SDS_P1;SDS_P2;PMS_P1;PMS_P2;Temp;Humidity;BMP_temperature;BMP_pressure;BME280_temperature;BME280_humidity;BME280_pressure;Samples;Min_cycle;Max_cycle;Signal;HPM_P1;HPM_P2
2021/12/18 00:02:12;;;;;;;43.00;19.50;;;4.20;72.40;;;;;;4964784;28;20390;-82
2021/12/18 00:04:38;;;;;;;24.17;16.57;;;4.20;72.00;;;;;;4985409;28;20031;-81
2021/12/18 00:07:05;;;;;;;25.10;16.03;;;4.20;71.80;;;;;;4983151;28;20065;-82
2021/12/18 00:09:32;;;;;;;26.90;16.43;;;4.10;71.80;;;;;;4971602;28;20027;-82
2021/12/18 00:12:00;;;;;;;22.27;14.57;;;4.20;71.80;;;;;;4986346;28;20031;-81
2021/12/18 00:14:26;;;;;;;26.47;17.97;;;4.10;71.90;;;;;;4973809;28;20035;-81
2021/12/18 00:16:52;;;;;;;31.33;20.13;;;4.10;71.60;;;;;;4972791;28;20031;-81
2021/12/18 00:19:24;;;;;;;33.80;22.07;;;4.10;72.00;;;;;;4991930;28;20101;-82
2021/12/18 00:21:50;;;;;;;32.65;21.63;;;4.00;71.60;;;;;;4971861;28;20050;-81
2021/12/18 00:24:15;;;;;;;36.10;22.10;;;3.90;71.50;;;;;;4969796;28;20125;-82
2021/12/18 00:26:41;;;;;;;32.17;21.07;;;3.90;71.30;;;;;;4985327;28;20101;-81
2021/12/18 00:29:07;;;;;;;35.77;22.40;;;3.80;72.00;;;;;;4980830;28;20386;-81
2021/12/18 00:31:32;;;;;;;35.67;21.93;;;3.80;71.80;;;;;;4970044;28;20026;-82
2021/12/18 00:33:58;;;;;;;35.40;20.83;;;3.80;71.80;;;;;;4968427;28;20038;-81
2021/12/18 00:36:24;;;;;;;34.70;21.27;;;3.80;71.80;;;;;;4984546;28;20390;-81
2021/12/18 00:38:49;;;;;;;42.23;23.87;;;3.70;71.90;;;;;;4983606;28;20066;-81
2021/12/18 00:41:35;;;;;;;31.07;21.03;;;3.70;72.10;;;;;;4980456;28;20099;-81
2021/12/18 00:44:01;;;;;;;30.87;20.03;;;3.70;72.10;;;;;;4963489;28;20089;-81
2021/12/18 00:46:46;;;;;;;30.70;20.90;;;3.70;72.00;;;;;;4960800;28;20478;-81
2021/12/18 00:49:15;;;;;;;33.03;21.30;;;3.70;72.10;;;;;;4985872;28;20031;-81
2021/12/18 00:51:41;;;;;;;31.60;20.30;;;3.60;72.10;;;;;;4980514;28;20034;-81
2021/12/18 00:54:08;;;;;;;31.60;19.30;;;3.50;72.30;;;;;;4964708;28;20062;-81
2021/12/18 00:56:33;;;;;;;35.27;20.73;;;3.40;72.20;;;;;;4969093;28;20030;-81
2021/12/18 00:58:59;;;;;;;29.87;20.37;;;3.40;72.70;;;;;;4983664;28;20031;-81
2021/12/18 01:01:27;;;;;;;28.33;18.70;;;3.30;72.90;;;;;;4981718;28;20041;-81
2021/12/18 01:03:55;;;;;;;29.67;19.63;;;3.30;72.80;;;;;;4963612;28;20039;-81
2021/12/18 01:06:22;;;;;;;29.83;19.57;;;3.30;73.00;;;;;;4967581;28;20129;-81
2021/12/18 01:08:51;;;;;;;30.03;18.47;;;3.20;73.20;;;;;;4981148;28;20121;-81
2021/12/18 01:24:41;;;;;;;31.90;19.10;;;3.30;73.20;;;;;;4980951;28;20077;-81
2021/12/18 01:27:06;;;;;;;33.33;21.43;;;3.40;73.10;;;;;;4968042;28;20470;-81
2021/12/18 01:29:32;;;;;;;35.40;20.33;;;3.30;73.00;;;;;;4982234;28;20073;-82
2021/12/18 01:31:58;;;;;;;36.27;20.10;;;3.40;73.20;;;;;;4982599;28;20027;-81
2021/12/18 01:34:23;;;;;;;36.10;21.17;;;3.50;73.10;;;;;;4985183;28;20033;-81
2021/12/18 01:36:49;;;;;;;31.87;20.97;;;3.40;72.90;;;;;;4968348;28;20071;-81
2021/12/18 01:39:15;;;;;;;32.33;20.70;;;3.40;72.90;;;;;;4968796;28;20390;-81
2021/12/18 01:52:39;;;;;;;32.77;20.70;;;3.40;73.00;;;;;;4987128;28;20037;-82
2021/12/18 01:55:06;;;;;;;33.70;19.63;;;3.40;73.00;;;;;;4986253;28;20458;-82
2021/12/18 01:57:32;;;;;;;31.00;19.57;;;3.50;73.10;;;;;;4980637;28;20027;-82
2021/12/18 01:59:58;;;;;;;32.60;20.00;;;3.50;72.90;;;;;;4967221;28;20037;-81
2021/12/18 02:02:24;;;;;;;27.83;18.70;;;3.40;72.80;;;;;;4965408;28;20030;-81
2021/12/18 02:04:50;;;;;;;30.20;18.80;;;3.40;73.00;;;;;;4985386;28;20113;-81
2021/12/18 02:07:17;;;;;;;28.30;18.27;;;3.40;73.00;;;;;;4984193;28;20025;-81
2021/12/18 02:10:02;;;;;;;29.40;18.40;;;3.40;72.90;;;;;;4985405;28;20519;-81
2021/12/18 02:12:39;;;;;;;30.57;19.07;;;3.40;72.90;;;;;;4962179;28;20025;-81
2021/12/18 02:22:59;;;;;;;29.40;19.10;;;3.30;73.00;;;;;;4983764;28;20129;-80
2021/12/18 02:25:26;;;;;;;28.57;18.77;;;3.20;73.00;;;;;;4963326;28;20113;-80
2021/12/18 02:27:52;;;;;;;28.37;18.53;;;3.20;73.00;;;;;;4986077;28;20034;-80
2021/12/18 02:30:22;;;;;;;28.93;20.03;;;3.10;72.90;;;;;;4974052;28;20112;-80
2021/12/18 02:32:52;;;;;;;29.63;18.20;;;3.20;73.20;;;;;;4957964;28;20063;-80
2021/12/18 02:35:29;;;;;;;30.77;19.80;;;3.20;73.10;;;;;;4970272;28;20036;-80
2021/12/18 02:38:09;;;;;;;32.00;19.67;;;3.20;73.40;;;;;;4957566;28;20113;-80
2021/12/18 02:43:13;;;;;;;41.73;22.43;;;3.30;73.50;;;;;;4983022;28;20023;-80
2021/12/18 02:45:39;;;;;;;30.63;18.87;;;3.40;73.40;;;;;;4981272;28;20034;-80
2021/12/18 02:48:05;;;;;;;33.67;19.30;;;3.40;73.40;;;;;;4972560;28;20584;-80
2021/12/18 02:50:31;;;;;;;37.77;21.33;;;3.50;73.10;;;;;;4969515;28;20022;-80
2021/12/18 02:52:57;;;;;;;32.60;21.37;;;3.50;73.00;;;;;;4962787;28;20023;-80
2021/12/18 02:55:22;;;;;;;36.77;19.63;;;3.60;72.90;;;;;;4989761;28;20111;-80
2021/12/18 02:57:48;;;;;;;32.57;20.63;;;3.60;72.80;;;;;;4972961;28;20034;-80
2021/12/18 03:00:14;;;;;;;31.53;20.10;;;3.50;72.30;;;;;;4962809;28;20022;-80
2021/12/18 03:02:43;;;;;;;29.73;18.83;;;3.30;72.30;;;;;;4961427;28;20030;-80
2021/12/18 03:05:14;;;;;;;31.23;21.37;;;3.20;72.70;;;;;;4956857;28;20041;-80
2021/12/18 03:07:40;;;;;;;33.60;18.57;;;3.20;73.00;;;;;;4967164;28;20018;-80
2021/12/18 03:23:48;;;;;;;29.73;19.20;;;3.00;72.90;;;;;;4945757;28;20054;-80
2021/12/18 03:26:14;;;;;;;28.13;18.67;;;2.90;72.80;;;;;;4954635;28;20544;-80
2021/12/18 03:28:41;;;;;;;33.13;20.10;;;2.80;72.80;;;;;;4941829;28;20034;-80
2021/12/18 03:31:06;;;;;;;29.00;18.20;;;2.70;73.40;;;;;;4972275;28;20031;-80
2021/12/18 03:33:32;;;;;;;29.63;20.60;;;2.80;73.60;;;;;;4990427;28;20030;-80
2021/12/18 03:35:58;;;;;;;34.23;20.17;;;2.80;73.50;;;;;;4962965;28;20179;-80
2021/12/18 03:38:24;;;;;;;30.60;20.50;;;2.70;73.30;;;;;;4956608;28;20038;-80
2021/12/18 03:40:50;;;;;;;33.90;20.27;;;2.70;73.50;;;;;;4970444;28;20029;-80
2021/12/18 03:43:16;;;;;;;47.10;21.60;;;2.60;73.50;;;;;;4988542;28;20113;-80
2021/12/18 03:45:42;;;;;;;30.00;20.47;;;2.60;73.80;;;;;;5002050;28;20165;-80
2021/12/18 03:48:08;;;;;;;31.67;20.37;;;2.60;74.10;;;;;;4967763;28;20046;-80
2021/12/18 03:50:33;;;;;;;30.50;19.80;;;2.70;74.20;;;;;;4985773;28;20089;-80
2021/12/18 03:52:59;;;;;;;30.27;18.40;;;2.70;74.00;;;;;;4986772;28;20077;-80
2021/12/18 03:55:26;;;;;;;28.80;18.23;;;2.80;73.70;;;;;;4980581;28;20073;-80
2021/12/18 03:57:53;;;;;;;30.53;18.50;;;2.80;73.60;;;;;;4989365;28;20026;-80
2021/12/18 04:00:19;;;;;;;26.30;17.90;;;2.80;73.70;;;;;;4990980;28;20382;-80
2021/12/18 04:02:45;;;;;;;28.37;18.60;;;2.80;73.70;;;;;;4971409;28;20026;-80
2021/12/18 04:05:11;;;;;;;27.10;17.70;;;2.80;73.70;;;;;;4962147;28;20041;-80
2021/12/18 04:07:42;;;;;;;29.07;18.27;;;2.90;73.70;;;;;;4968804;28;20077;-80
2021/12/18 04:10:14;;;;;;;28.37;16.63;;;2.90;73.60;;;;;;4987038;28;20027;-80
2021/12/18 04:12:40;;;;;;;23.48;15.43;;;3.00;73.50;;;;;;4978642;28;20403;-80
2021/12/18 04:15:06;;;;;;;23.90;17.10;;;3.00;73.40;;;;;;4978231;28;20058;-80
2021/12/18 04:17:32;;;;;;;28.00;16.80;;;3.00;73.20;;;;;;4991355;28;20035;-80
2021/12/18 04:19:58;;;;;;;26.03;18.03;;;3.00;73.20;;;;;;4962002;28;20397;-80
2021/12/18 04:22:24;;;;;;;28.57;18.87;;;3.00;73.20;;;;;;4984716;28;20042;-80
2021/12/18 04:24:50;;;;;;;27.77;18.43;;;2.90;73.20;;;;;;4975972;28;20125;-80
2021/12/18 04:27:16;;;;;;;27.70;18.07;;;2.90;73.10;;;;;;4992495;28;20057;-80
2021/12/18 04:29:42;;;;;;;28.37;17.93;;;2.90;73.00;;;;;;4970454;28;20029;-80
2021/12/18 04:32:08;;;;;;;31.93;19.67;;;2.90;73.10;;;;;;4981684;28;20030;-80
2021/12/18 04:34:33;;;;;;;28.10;16.93;;;2.80;73.20;;;;;;4978797;28;20027;-80
2021/12/18 04:36:59;;;;;;;26.63;17.87;;;2.80;73.20;;;;;;4981077;28;20031;-80
2021/12/18 04:39:25;;;;;;;26.33;17.10;;;2.80;73.10;;;;;;4986310;28;20054;-80
2021/12/18 04:41:57;;;;;;;28.40;18.20;;;2.80;73.20;;;;;;4986740;28;20027;-80
2021/12/18 04:44:23;;;;;;;25.50;15.80;;;2.80;73.30;;;;;;4991659;28;20035;-80
2021/12/18 04:46:49;;;;;;;25.43;15.17;;;2.90;73.30;;;;;;4981930;28;20474;-80
2021/12/18 04:49:15;;;;;;;23.57;14.70;;;2.90;73.10;;;;;;4982787;28;20029;-80
2021/12/18 04:51:41;;;;;;;21.37;14.47;;;2.90;73.10;;;;;;4969538;28;20077;-80
2021/12/18 04:54:07;;;;;;;26.53;17.40;;;3.00;72.90;;;;;;4984501;28;20389;-80
2021/12/18 04:56:34;;;;;;;23.97;16.40;;;2.90;72.80;;;;;;4979293;28;20102;-80
2021/12/18 04:58:59;;;;;;;28.57;17.37;;;2.90;72.70;;;;;;4984634;28;20100;-80
2021/12/18 05:01:25;;;;;;;24.30;16.53;;;2.90;73.00;;;;;;4984056;28;20031;-80
2021/12/18 05:03:51;;;;;;;27.57;18.00;;;2.90;72.70;;;;;;4969117;28;20722;-80
2021/12/18 05:06:17;;;;;;;25.77;17.07;;;2.90;72.70;;;;;;4985268;28;20027;-80
2021/12/18 05:08:43;;;;;;;29.60;17.57;;;2.90;72.50;;;;;;4990033;28;20030;-80
2021/12/18 05:11:09;;;;;;;24.83;17.43;;;2.90;72.60;;;;;;4979674;28;20030;-81
2021/12/18 05:13:34;;;;;;;26.67;17.33;;;2.90;72.50;;;;;;4978943;28;20348;-80
2021/12/18 05:16:00;;;;;;;24.53;16.17;;;2.90;72.50;;;;;;4963911;28;20026;-80
2021/12/18 05:18:26;;;;;;;24.97;16.83;;;2.80;72.50;;;;;;4984627;28;20030;-80
2021/12/18 05:20:52;;;;;;;24.40;16.93;;;2.80;72.60;;;;;;4985021;28;20038;-80
2021/12/18 05:23:17;;;;;;;26.67;17.53;;;2.80;72.60;;;;;;4959405;28;20450;-80
2021/12/18 05:25:43;;;;;;;29.27;17.07;;;2.80;72.60;;;;;;4977779;28;20027;-80
2021/12/18 05:28:09;;;;;;;24.40;16.97;;;2.80;72.60;;;;;;4977380;28;20102;-80
2021/12/18 05:30:34;;;;;;;23.77;16.00;;;2.80;72.70;;;;;;4967639;28;20089;-80
2021/12/18 05:33:00;;;;;;;27.07;17.00;;;2.90;72.70;;;;;;4984589;28;20049;-81
2021/12/18 05:35:26;;;;;;;30.00;18.20;;;2.90;72.60;;;;;;4981238;28;20027;-80
2021/12/18 05:37:54;;;;;;;26.10;16.83;;;2.90;72.50;;;;;;4983829;28;20038;-80
2021/12/18 05:40:22;;;;;;;26.27;17.57;;;2.80;72.30;;;;;;4987422;28;20030;-80
2021/12/18 05:42:49;;;;;;;22.10;15.33;;;2.70;72.30;;;;;;4965344;28;20505;-80
2021/12/18 05:45:15;;;;;;;24.77;17.17;;;2.70;72.50;;;;;;4984534;28;20027;-80
2021/12/18 05:47:43;;;;;;;27.17;17.10;;;2.70;72.60;;;;;;4988065;28;20049;-80
2021/12/18 05:50:10;;;;;;;26.83;16.40;;;2.70;72.70;;;;;;4965943;28;20038;-80
2021/12/18 05:52:35;;;;;;;27.30;17.37;;;2.80;72.60;;;;;;4982727;28;20031;-80
2021/12/18 05:55:02;;;;;;;26.87;16.90;;;2.80;72.50;;;;;;4961797;28;20034;-80
2021/12/18 05:57:28;;;;;;;24.33;15.93;;;2.70;72.20;;;;;;4988462;28;20081;-80
2021/12/18 05:59:53;;;;;;;23.90;16.27;;;2.70;72.30;;;;;;4987448;28;20026;-80
2021/12/18 06:02:19;;;;;;;25.80;16.17;;;2.70;72.40;;;;;;4986512;28;20030;-80
2021/12/18 06:04:45;;;;;;;25.77;15.03;;;2.70;72.10;;;;;;4987512;28;20493;-80
2021/12/18 06:07:27;;;;;;;23.10;15.20;;;2.60;72.20;;;;;;4990980;28;20029;-80
2021/12/18 06:09:53;;;;;;;23.80;15.57;;;2.60;72.30;;;;;;4970190;28;20027;-81
2021/12/18 06:12:19;;;;;;;22.70;15.33;;;2.60;72.30;;;;;;4966809;28;20026;-80
2021/12/18 06:14:45;;;;;;;28.93;16.47;;;2.60;72.20;;;;;;4966327;28;20031;-80
2021/12/18 06:17:11;;;;;;;24.13;15.13;;;2.60;72.30;;;;;;4979377;28;20501;-80
2021/12/18 06:19:37;;;;;;;22.27;14.30;;;2.60;72.20;;;;;;4965945;28;20022;-80
2021/12/18 06:22:03;;;;;;;19.23;13.17;;;2.60;72.00;;;;;;4981894;28;20043;-80
2021/12/18 06:24:29;;;;;;;23.50;14.23;;;2.60;72.10;;;;;;4978443;28;20121;-80
2021/12/18 06:26:56;;;;;;;25.50;15.70;;;2.70;72.20;;;;;;4964632;28;20023;-80
2021/12/18 06:29:22;;;;;;;26.33;16.70;;;2.70;72.30;;;;;;4978167;28;20550;-80
2021/12/18 06:31:48;;;;;;;30.30;18.83;;;2.70;72.20;;;;;;4965117;28;20022;-80
2021/12/18 06:34:15;;;;;;;24.23;16.43;;;2.70;72.10;;;;;;4966551;28;20026;-80
2021/12/18 06:36:40;;;;;;;28.00;17.83;;;2.70;72.20;;;;;;4962646;28;20037;-80
2021/12/18 06:39:06;;;;;;;25.90;17.53;;;2.80;72.40;;;;;;4965226;28;20030;-81
2021/12/18 06:41:32;;;;;;;28.63;18.50;;;2.90;72.70;;;;;;4967157;28;20452;-80
2021/12/18 06:43:58;;;;;;;30.37;18.47;;;2.80;71.80;;;;;;4983629;28;20034;-80
2021/12/18 06:46:24;;;;;;;25.83;17.93;;;2.80;72.30;;;;;;4983201;28;20839;-80
2021/12/18 06:48:49;;;;;;;28.20;18.17;;;2.80;72.50;;;;;;4979932;28;20059;-80
2021/12/18 06:51:17;;;;;;;30.67;20.47;;;2.80;72.30;;;;;;4984197;28;20038;-80
2021/12/18 06:53:42;;;;;;;27.60;17.63;;;2.80;72.10;;;;;;4967080;28;20038;-80
2021/12/18 06:56:08;;;;;;;26.03;18.33;;;2.80;72.00;;;;;;4970575;28;20037;-80
2021/12/18 06:58:34;;;;;;;27.07;17.57;;;2.80;72.40;;;;;;4982590;28;20023;-80
2021/12/18 07:00:59;;;;;;;28.30;18.37;;;2.70;71.90;;;;;;4974105;28;20117;-80
2021/12/18 07:03:26;;;;;;;27.07;17.63;;;2.60;71.90;;;;;;4970735;28;20501;-80
2021/12/18 07:05:51;;;;;;;28.67;18.23;;;2.60;72.00;;;;;;4985070;28;20027;-80
2021/12/18 07:08:17;;;;;;;23.20;16.37;;;2.50;72.10;;;;;;4981428;28;20088;-80
2021/12/18 07:10:43;;;;;;;27.30;17.60;;;2.50;72.10;;;;;;4981058;28;20038;-80
2021/12/18 07:13:10;;;;;;;24.80;16.20;;;2.50;72.10;;;;;;4961396;28;20029;-80
2021/12/18 07:15:36;;;;;;;24.47;17.13;;;2.40;72.60;;;;;;4962358;28;20119;-80
2021/12/18 07:18:01;;;;;;;25.07;16.37;;;2.60;72.90;;;;;;4964828;28;20105;-80
2021/12/18 07:20:27;;;;;;;24.10;14.93;;;2.70;72.80;;;;;;4987533;28;20443;-80
2021/12/18 07:22:54;;;;;;;24.60;15.90;;;2.80;73.10;;;;;;4993841;28;20045;-80
2021/12/18 07:25:20;;;;;;;23.03;14.90;;;2.90;72.70;;;;;;4984607;28;20097;-81
2021/12/18 07:27:46;;;;;;;25.10;15.53;;;3.10;72.40;;;;;;4979145;28;20070;-80
2021/12/18 07:30:13;;;;;;;19.63;12.57;;;3.00;72.20;;;;;;4976739;28;20053;-80
2021/12/18 07:32:39;;;;;;;19.80;12.87;;;3.00;72.50;;;;;;4983123;28;20080;-80
2021/12/18 07:35:06;;;;;;;22.43;15.27;;;2.90;72.10;;;;;;4980676;28;20038;-81
2021/12/18 07:37:32;;;;;;;132.93;54.77;;;3.00;72.10;;;;;;4975933;28;20493;-80
2021/12/18 07:39:58;;;;;;;164.70;69.93;;;3.10;72.60;;;;;;4978399;28;20030;-80
2021/12/18 07:42:24;;;;;;;48.50;24.20;;;3.10;71.80;;;;;;4965681;28;20018;-80
2021/12/18 07:44:51;;;;;;;36.60;19.70;;;3.10;71.70;;;;;;4983533;28;20066;-80
2021/12/18 07:47:17;;;;;;;56.60;31.10;;;3.20;72.40;;;;;;4981614;28;20110;-80
2021/12/18 07:49:43;;;;;;;40.93;22.10;;;3.30;71.60;;;;;;4978442;28;20478;-80
2021/12/18 07:52:09;;;;;;;59.70;30.23;;;3.30;70.90;;;;;;4964622;28;20027;-80
2021/12/18 07:54:35;;;;;;;48.40;24.73;;;3.10;69.90;;;;;;4978997;28;20034;-80
2021/12/18 07:57:01;;;;;;;45.27;23.77;;;2.80;70.30;;;;;;4964477;28;20026;-80
2021/12/18 07:59:27;;;;;;;42.57;23.80;;;2.80;71.20;;;;;;4982005;28;20026;-80
2021/12/18 08:01:52;;;;;;;27.87;18.07;;;3.00;71.50;;;;;;4981288;28;20114;-80
2021/12/18 08:04:18;;;;;;;35.47;21.03;;;3.00;71.10;;;;;;4960404;28;20026;-80
2021/12/18 08:06:44;;;;;;;26.03;17.43;;;3.00;71.30;;;;;;4956294;28;20030;-80
2021/12/18 08:09:10;;;;;;;39.30;22.77;;;3.10;72.40;;;;;;4981023;28;20074;-80
2021/12/18 08:11:35;;;;;;;34.93;23.00;;;3.10;71.50;;;;;;4980419;28;20049;-80
2021/12/18 08:14:01;;;;;;;35.90;22.53;;;3.30;71.50;;;;;;4981314;28;20068;-80
2021/12/18 08:16:27;;;;;;;27.67;19.33;;;3.20;70.70;;;;;;4961542;28;20379;-81
2021/12/18 08:18:52;;;;;;;33.40;21.03;;;3.10;71.00;;;;;;4984775;28;20041;-81
2021/12/18 08:21:18;;;;;;;30.20;18.03;;;3.00;70.70;;;;;;4969587;28;20080;-80
2021/12/18 08:23:44;;;;;;;24.33;14.90;;;2.90;70.70;;;;;;4959563;28;20141;-80
2021/12/18 08:26:09;;;;;;;28.17;17.47;;;2.90;71.20;;;;;;4958853;28;20061;-80
2021/12/18 08:28:35;;;;;;;25.57;17.77;;;2.90;70.90;;;;;;4976298;28;20059;-81
2021/12/18 08:31:01;;;;;;;27.20;17.60;;;2.70;70.80;;;;;;4966297;28;20030;-80
2021/12/18 08:33:26;;;;;;;25.43;17.17;;;2.70;71.30;;;;;;4986561;28;20097;-80
2021/12/18 08:35:52;;;;;;;28.50;17.40;;;2.70;71.20;;;;;;4986609;28;20050;-81
2021/12/18 08:38:18;;;;;;;27.67;17.23;;;2.70;71.30;;;;;;4964428;28;20109;-81
2021/12/18 08:40:45;;;;;;;24.47;15.87;;;2.60;71.10;;;;;;4989996;28;20058;-81
2021/12/18 08:43:11;;;;;;;26.17;17.17;;;2.60;71.10;;;;;;4985913;28;20548;-81
2021/12/18 08:45:38;;;;;;;23.43;16.93;;;2.70;71.30;;;;;;4983806;28;20396;-81
2021/12/18 08:48:04;;;;;;;23.93;16.57;;;2.70;71.20;;;;;;4983181;28;20026;-81
2021/12/18 08:50:29;;;;;;;28.13;17.53;;;2.70;71.20;;;;;;4985135;28;20033;-80
2021/12/18 08:52:55;;;;;;;29.10;17.07;;;2.70;71.10;;;;;;4963721;28;20652;-81
2021/12/18 08:55:22;;;;;;;22.43;15.37;;;2.70;71.10;;;;;;4965818;28;20111;-80
2021/12/18 08:57:49;;;;;;;24.73;16.70;;;2.70;71.10;;;;;;4966430;28;20126;-81
2021/12/18 09:00:19;;;;;;;25.47;16.67;;;2.70;71.20;;;;;;4982882;28;20034;-80
2021/12/18 09:02:47;;;;;;;27.90;17.17;;;2.70;71.00;;;;;;4982348;28;20440;-80
2021/12/18 09:05:13;;;;;;;24.43;17.20;;;2.70;71.20;;;;;;4977071;28;20130;-81
2021/12/18 09:07:39;;;;;;;22.47;15.60;;;2.70;71.20;;;;;;4981672;28;20031;-81
2021/12/18 09:10:06;;;;;;;25.73;17.57;;;2.70;71.20;;;;;;4964315;28;20391;-81
2021/12/18 09:12:32;;;;;;;27.53;17.53;;;2.80;71.20;;;;;;4981353;28;20026;-80
2021/12/18 09:14:58;;;;;;;25.10;17.90;;;2.80;71.10;;;;;;4977298;28;20035;-80
2021/12/18 09:17:24;;;;;;;25.57;17.03;;;2.70;70.80;;;;;;4959219;28;20034;-80
2021/12/18 09:19:51;;;;;;;25.53;17.67;;;2.80;71.00;;;;;;4975022;28;20031;-80
2021/12/18 09:22:17;;;;;;;25.10;16.83;;;2.80;70.90;;;;;;4982928;28;20113;-80
2021/12/18 09:24:43;;;;;;;25.43;17.63;;;2.80;70.90;;;;;;4965684;28;20042;-80
2021/12/18 09:27:09;;;;;;;25.67;16.80;;;2.80;70.80;;;;;;4980997;28;20027;-80
2021/12/18 09:29:35;;;;;;;28.67;18.57;;;2.90;70.70;;;;;;4965395;28;20022;-80
2021/12/18 09:32:01;;;;;;;23.90;16.57;;;2.90;70.70;;;;;;4977209;28;20066;-80
2021/12/18 09:34:29;;;;;;;25.73;17.57;;;2.80;70.70;;;;;;4966501;28;20509;-81
2021/12/18 09:36:55;;;;;;;26.83;16.90;;;2.80;70.90;;;;;;4979218;28;20093;-80
2021/12/18 09:39:21;;;;;;;26.33;17.23;;;2.80;70.60;;;;;;4962719;28;20817;-80
2021/12/18 09:41:48;;;;;;;25.93;17.73;;;2.90;70.70;;;;;;4983039;28;20101;-80
2021/12/18 09:44:20;;;;;;;25.43;17.40;;;2.90;70.70;;;;;;4982482;28;20403;-80
2021/12/18 09:46:46;;;;;;;23.73;16.83;;;3.00;70.70;;;;;;4967886;28;20030;-80
2021/12/18 09:49:13;;;;;;;28.53;17.17;;;3.10;70.40;;;;;;4964735;28;20022;-81
2021/12/18 09:51:39;;;;;;;26.73;16.87;;;3.20;70.30;;;;;;4967485;28;20087;-80
2021/12/18 09:54:04;;;;;;;23.13;16.73;;;3.30;70.30;;;;;;4976691;28;20030;-80
2021/12/18 09:56:30;;;;;;;24.07;15.57;;;3.40;70.00;;;;;;4959019;28;20081;-80
2021/12/18 09:58:56;;;;;;;25.47;16.03;;;3.50;69.90;;;;;;4980205;28;20059;-80
2021/12/18 10:01:22;;;;;;;21.93;15.53;;;3.60;69.20;;;;;;4959767;28;20031;-80
2021/12/18 10:03:54;;;;;;;24.83;17.43;;;3.70;69.30;;;;;;4984835;28;22526;-81
2021/12/18 10:06:42;;;;;;;27.53;19.90;;;3.90;69.30;;;;;;4959867;28;20027;-81
2021/12/18 10:09:33;;;;;;;26.00;17.87;;;4.10;68.90;;;;;;4975073;28;20028;-81
2021/12/18 10:12:00;;;;;;;24.73;16.40;;;4.20;68.80;;;;;;4970687;28;20042;-80
2021/12/18 10:14:53;;;;;;;24.67;17.13;;;4.40;68.80;;;;;;4986433;28;20022;-80
2021/12/18 10:17:31;;;;;;;23.33;16.35;;;4.50;69.10;;;;;;4977140;28;20037;-81
2021/12/18 10:20:21;;;;;;;23.53;16.57;;;4.60;68.20;;;;;;4973634;28;20093;-80
2021/12/18 10:22:49;;;;;;;25.37;15.53;;;4.70;67.70;;;;;;4980429;28;20413;-80
2021/12/18 10:25:23;;;;;;;20.20;14.50;;;4.90;67.80;;;;;;4984632;28;20031;-81
2021/12/18 10:28:08;;;;;;;20.33;14.67;;;5.20;66.90;;;;;;4981345;28;20475;-81
2021/12/18 10:30:34;;;;;;;21.43;14.83;;;5.40;66.50;;;;;;4977131;28;20023;-80
2021/12/18 10:33:06;;;;;;;23.77;16.77;;;5.70;66.00;;;;;;4984706;28;20413;-81
2021/12/18 10:35:50;;;;;;;23.27;16.63;;;5.90;65.30;;;;;;4970260;28;20505;-81
2021/12/18 10:38:37;;;;;;;21.97;16.07;;;6.00;64.70;;;;;;4977509;28;20030;-80
2021/12/18 10:41:36;;;;;;;22.43;16.83;;;6.20;64.70;;;;;;4983745;28;20435;-81
2021/12/18 10:44:06;;;;;;;21.53;16.43;;;6.40;64.50;;;;;;4976399;28;20031;-81
2021/12/18 10:46:33;;;;;;;18.97;14.63;;;6.50;64.80;;;;;;4961328;28;20034;-81
2021/12/18 10:49:01;;;;;;;19.20;12.07;;;6.50;64.50;;;;;;4967913;28;20031;-81
2021/12/18 10:51:30;;;;;;;19.90;15.50;;;6.60;64.60;;;;;;4992606;28;20050;-81
2021/12/18 10:54:12;;;;;;;20.40;14.50;;;6.80;64.00;;;;;;4960422;28;20114;-80
2021/12/18 10:56:42;;;;;;;21.02;13.80;;;6.70;63.00;;;;;;4979521;28;20433;-81
2021/12/18 10:59:27;;;;;;;18.43;13.20;;;6.60;62.90;;;;;;4973573;28;20129;-81
2021/12/18 11:01:55;;;;;;;21.17;12.83;;;6.70;62.70;;;;;;4962861;28;20038;-81
2021/12/18 11:04:24;;;;;;;19.27;15.40;;;6.80;63.00;;;;;;4972775;28;20462;-81
2021/12/18 11:06:49;;;;;;;19.03;13.67;;;6.90;62.10;;;;;;4960575;28;20031;-81
2021/12/18 11:09:17;;;;;;;21.70;13.70;;;7.00;62.10;;;;;;4980803;28;20037;-81
2021/12/18 11:14:13;;;;;;;17.40;13.10;;;7.10;61.30;;;;;;4973950;28;20031;-81
2021/12/18 11:16:41;;;;;;;16.80;12.60;;;7.20;61.20;;;;;;4963421;28;20141;-81
2021/12/18 11:19:12;;;;;;;20.07;13.97;;;7.20;61.10;;;;;;4973320;28;20496;-81
2021/12/18 11:21:42;;;;;;;19.13;13.97;;;7.10;60.90;;;;;;4963176;28;20117;-81
2021/12/18 11:24:08;;;;;;;17.93;14.20;;;7.20;60.90;;;;;;4979950;28;20490;-81
2021/12/18 11:26:55;;;;;;;17.27;12.90;;;7.30;60.50;;;;;;4983600;28;20023;-81
2021/12/18 11:29:40;;;;;;;16.20;12.17;;;7.40;60.30;;;;;;4959058;28;20084;-81
2021/12/18 11:32:07;;;;;;;17.73;12.47;;;7.20;59.80;;;;;;4983832;28;20096;-81
2021/12/18 11:34:33;;;;;;;17.90;13.00;;;7.20;59.90;;;;;;4979757;28;20079;-81
2021/12/18 11:36:59;;;;;;;19.20;13.60;;;7.20;59.90;;;;;;4985764;28;20058;-81
2021/12/18 11:39:29;;;;;;;19.10;13.13;;;7.30;59.80;;;;;;4973262;28;20059;-81
2021/12/18 11:41:56;;;;;;;17.83;13.70;;;7.40;59.60;;;;;;4980858;28;20077;-80
2021/12/18 11:44:26;;;;;;;19.23;13.27;;;7.40;59.50;;;;;;4965248;28;20038;-80
2021/12/18 11:46:53;;;;;;;17.67;12.57;;;7.50;59.30;;;;;;4976265;28;20782;-80
2021/12/18 11:49:21;;;;;;;26.17;15.13;;;7.50;59.20;;;;;;4958117;28;20494;-80
2021/12/18 11:52:03;;;;;;;22.17;16.07;;;7.50;59.00;;;;;;4978764;28;20030;-80
2021/12/18 11:54:44;;;;;;;20.67;14.77;;;7.50;58.80;;;;;;4958602;28;20138;-80
2021/12/18 11:57:10;;;;;;;20.73;13.63;;;7.50;58.60;;;;;;4972776;28;20390;-80
2021/12/18 11:59:39;;;;;;;25.17;14.97;;;7.40;58.70;;;;;;4980719;28;20031;-80
2021/12/18 12:02:04;;;;;;;18.90;13.93;;;7.30;58.30;;;;;;4963566;28;20027;-80
2021/12/18 12:05:03;;;;;;;20.20;14.37;;;7.30;58.70;;;;;;4964646;28;20901;-80
2021/12/18 12:07:29;;;;;;;21.97;14.50;;;7.40;58.30;;;;;;4980024;28;20034;-80
2021/12/18 12:10:46;;;;;;;24.17;15.47;;;7.40;58.40;;;;;;4974100;28;20058;-80
2021/12/18 12:13:09;;;;;;;20.63;13.40;;;7.40;58.30;;;;;;4978541;28;20499;-80
2021/12/18 12:15:51;;;;;;;23.73;14.67;;;7.50;58.40;;;;;;4977587;28;20067;-80
2021/12/18 12:18:18;;;;;;;19.67;13.40;;;7.50;58.00;;;;;;4979183;28;20513;-80
2021/12/18 12:20:51;;;;;;;18.50;13.33;;;7.50;58.10;;;;;;4963616;28;20429;-80
2021/12/18 12:23:16;;;;;;;19.58;12.88;;;7.60;58.00;;;;;;4963227;28;20039;-80
2021/12/18 12:25:52;;;;;;;18.77;13.60;;;7.70;57.80;;;;;;4963788;28;20452;-80
2021/12/18 12:28:23;;;;;;;18.77;12.77;;;7.80;57.60;;;;;;4986081;28;20022;-80
2021/12/18 12:30:58;;;;;;;20.10;12.07;;;7.80;57.40;;;;;;4985649;28;20038;-80
2021/12/18 12:33:27;;;;;;;19.17;11.97;;;7.90;57.30;;;;;;4979009;28;20038;-80
2021/12/18 12:36:10;;;;;;;14.13;10.83;;;7.90;57.30;;;;;;4958671;28;20057;-80
2021/12/18 12:38:40;;;;;;;16.10;11.27;;;8.00;57.50;;;;;;4980309;28;20042;-80
2021/12/18 12:41:28;;;;;;;16.47;9.30;;;8.00;57.30;;;;;;4983366;28;20034;-80
2021/12/18 12:44:00;;;;;;;17.17;11.03;;;8.00;57.40;;;;;;4981392;28;20042;-80
2021/12/18 12:46:26;;;;;;;19.63;11.10;;;8.00;57.50;;;;;;4965504;28;20116;-80
2021/12/18 12:49:06;;;;;;;14.10;11.03;;;7.90;57.40;;;;;;4959667;28;20034;-80
2021/12/18 12:51:58;;;;;;;14.10;10.50;;;7.90;57.10;;;;;;4970326;28;20034;-80
2021/12/18 12:55:13;;;;;;;18.00;11.23;;;7.80;57.00;;;;;;4980445;28;20041;-80
2021/12/18 12:57:41;;;;;;;19.17;11.63;;;7.70;57.00;;;;;;4982377;28;20126;-78
2021/12/18 13:00:07;;;;;;;20.97;13.37;;;7.70;57.30;;;;;;4985162;28;20374;-78
2021/12/18 13:02:49;;;;;;;26.77;18.00;;;7.60;57.10;;;;;;4970556;28;20494;-78
2021/12/18 13:05:15;;;;;;;20.90;12.43;;;7.60;57.00;;;;;;4975601;28;20396;-78
2021/12/18 13:07:49;;;;;;;17.40;10.47;;;7.60;57.10;;;;;;4992495;28;20026;-78
2021/12/18 13:10:43;;;;;;;16.40;10.67;;;7.50;57.00;;;;;;4993845;28;20130;-79
2021/12/18 13:13:12;;;;;;;17.67;11.70;;;7.50;57.40;;;;;;4972901;28;20046;-79
2021/12/18 13:16:02;;;;;;;16.70;11.00;;;7.40;57.50;;;;;;4972278;28;20046;-79
2021/12/18 13:18:33;;;;;;;19.03;11.70;;;7.30;57.30;;;;;;4958127;28;20034;-78
2021/12/18 13:21:06;;;;;;;20.83;11.10;;;7.30;57.60;;;;;;4977046;28;20117;-79
2021/12/18 13:23:40;;;;;;;19.40;12.70;;;7.30;57.50;;;;;;4977444;28;20129;-79
2021/12/18 13:26:10;;;;;;;19.07;11.73;;;7.30;57.30;;;;;;4984813;28;20459;-79
2021/12/18 13:29:06;;;;;;;21.83;11.33;;;7.10;57.50;;;;;;4983871;28;20020;-79
2021/12/18 13:31:36;;;;;;;18.70;11.40;;;7.10;57.80;;;;;;4963191;28;20026;-79
2021/12/18 13:34:08;;;;;;;14.53;10.67;;;7.10;57.90;;;;;;4974973;28;20023;-79
2021/12/18 13:36:55;;;;;;;17.53;10.77;;;7.10;57.90;;;;;;4975450;28;20624;-79